createdAt,value
2023-05-02T00:00:41.923Z,35.096989966555185
2023-05-02T00:07:03.927Z,34.94314381270903
2023-05-02T00:13:23.258Z,35.65886287625418
2023-05-02T00:19:42.943Z,36.82943143812709
2023-05-02T00:28:58.029Z,37.31438127090301
2023-05-02T00:35:18.003Z,37.78929765886288
2023-05-02T00:41:37.353Z,35.67892976588629
2023-05-02T00:47:57.431Z,35.43478260869565
2023-05-02T00:54:17.526Z,34.92307692307692
2023-05-02T01:00:37.617Z,33.33444816053512
2023-05-02T01:13:53.233Z,31.926421404682273
2023-05-02T01:20:12.700Z,30.578595317725753
2023-05-02T01:32:15.926Z,29.91638795986622
2023-05-02T01:38:35.791Z,26.240802675585286
2023-05-02T01:44:55.279Z,26.819397993311036
2023-05-02T01:51:15.020Z,22.71571906354515
2023-05-02T02:03:10.846Z,22.093645484949832
2023-05-02T02:09:31.784Z,14.74581939799331
2023-05-02T02:19:17.025Z,3.130434782608696
2023-05-02T02:25:36.158Z,3.060200668896321
2023-05-02T02:37:50.461Z,1.5518394648829432
2023-05-02T02:44:10.210Z,1.8896321070234114
2023-05-02T02:50:30.253Z,0.9364548494983278
2023-05-02T02:56:50.345Z,2.3846153846153846
2023-05-02T03:03:10.393Z,2.6387959866220734
2023-05-02T03:09:30.099Z,3.57190635451505
2023-05-02T03:16:49.621Z,3.3344481605351173
2023-05-02T03:23:08.946Z,5.264214046822742
2023-05-02T03:29:28.024Z,5.411371237458194
2023-05-02T03:40:58.334Z,7.043478260869565
2023-05-02T03:48:22.420Z,6.625418060200669
2023-05-02T03:54:42.243Z,8.377926421404682
2023-05-02T04:01:03.489Z,8.327759197324415
2023-05-02T04:07:23.800Z,7.986622073578595
2023-05-02T04:13:43.877Z,8.050167224080267
2023-05-02T04:20:05.566Z,7.454849498327759
2023-05-02T04:26:28.302Z,9.956521739130435
2023-05-02T04:35:45.028Z,7.7324414715719065
2023-05-02T04:42:07.277Z,7.709030100334449
2023-05-02T04:53:02.070Z,6.896321070234114
2023-05-02T05:03:46.216Z,6.488294314381271
2023-05-02T05:10:08.559Z,7.588628762541806
2023-05-02T05:16:30.820Z,7.525083612040134
2023-05-02T05:22:52.385Z,6.829431438127091
2023-05-02T05:29:14.939Z,8.08361204013378
2023-05-02T05:35:36.684Z,8.602006688963211
2023-05-02T05:42:00.887Z,7.016722408026756
2023-05-02T05:48:24.598Z,5.946488294314381
2023-05-02T05:54:48.455Z,5.903010033444816
2023-05-02T06:02:32.323Z,6.548494983277592
2023-05-02T06:08:55.967Z,5.645484949832776
2023-05-02T06:28:27.774Z,5.464882943143813
2023-05-02T06:34:51.911Z,4.816053511705686
2023-05-02T06:41:17.298Z,4.337792642140468
2023-05-02T06:47:42.237Z,4.39799331103679
2023-05-02T06:54:05.352Z,3.57190635451505
2023-05-02T07:00:30.121Z,5.073578595317726
2023-05-02T07:06:51.515Z,5.919732441471572
2023-05-02T07:13:53.815Z,5.026755852842809
2023-05-02T07:20:15.287Z,5.936454849498328
2023-05-02T07:26:38.863Z,6.337792642140468
2023-05-02T07:33:00.984Z,6.003344481605351
2023-05-02T07:44:06.917Z,5.775919732441472
2023-05-02T07:50:28.909Z,5.321070234113712
2023-05-02T07:56:50.778Z,6.568561872909699
2023-05-02T08:08:09.397Z,5.250836120401337
2023-05-02T08:14:30.899Z,4.34113712374582
2023-05-02T08:20:52.171Z,5.434782608695652
2023-05-02T08:32:17.741Z,5.645484949832776
2023-05-02T08:38:39.185Z,5.6120401337792645
2023-05-02T08:45:01.383Z,6.444816053511706
2023-05-02T09:01:20.831Z,3.9331103678929766
2023-05-02T09:07:41.703Z,3.702341137123746
2023-05-02T09:14:03.699Z,4.4280936454849495
2023-05-02T09:20:25.744Z,4.083612040133779
2023-05-02T09:26:46.543Z,3.0702341137123748
2023-05-02T09:33:06.794Z,4.3478260869565215
2023-05-02T09:39:26.613Z,5.304347826086956
2023-05-02T09:55:54.854Z,2.290969899665552
2023-05-02T10:02:15.008Z,4.973244147157191
2023-05-02T10:08:34.491Z,7.775919732441472
2023-05-02T10:14:54.073Z,2.1070234113712374
2023-05-02T10:21:16.381Z,2.270903010033445
2023-05-02T10:27:36.069Z,3.1672240802675584
2023-05-02T10:33:56.142Z,3.3578595317725752
2023-05-02T10:40:16.349Z,2.745819397993311
2023-05-02T11:12:31.259Z,1.4381270903010033
2023-05-02T11:23:13.235Z,1.645484949832776
2023-05-02T11:29:35.063Z,1.6387959866220736
2023-05-02T11:35:57.362Z,1.9063545150501673
2023-05-02T11:42:19.317Z,2.250836120401338
2023-05-02T11:48:40.818Z,4.34113712374582
2023-05-02T11:58:25.371Z,2.5585284280936453
2023-05-02T12:04:45.473Z,1.9933110367892977
2023-05-02T12:20:35.498Z,3.3578595317725752
2023-05-02T12:32:39.925Z,2.8561872909698995
2023-05-02T12:44:56.983Z,2.4180602006688963
2023-05-02T12:51:17.777Z,2.1471571906354514
2023-05-02T12:57:37.734Z,2.157190635451505
2023-05-02T13:03:57.995Z,1.6622073578595318
2023-05-02T13:10:18.520Z,1.5150501672240804
2023-05-02T13:19:26.641Z,9.68561872909699
2023-05-02T13:25:46.852Z,5.695652173913044
2023-05-02T13:34:26.844Z,22.05351170568562
2023-05-02T13:40:47.009Z,3.060200668896321
2023-05-02T13:47:06.733Z,2.5250836120401337
2023-05-02T13:55:05.738Z,5.608695652173913
2023-05-02T14:01:26.072Z,3.3612040133779266
2023-05-02T14:07:46.714Z,3.739130434782609
2023-05-02T14:14:07.532Z,4.394648829431438
2023-05-02T14:20:29.625Z,6.45819397993311
2023-05-02T14:26:51.725Z,3.1270903010033444
2023-05-02T14:33:13.544Z,3.2040133779264215
2023-05-02T14:39:55.128Z,2.769230769230769
2023-05-02T14:46:15.911Z,3.4214046822742477
2023-05-02T14:52:36.027Z,2.5819397993311037
2023-05-02T14:58:57.066Z,2.9966555183946486
2023-05-02T15:05:18.069Z,2.391304347826087
2023-05-02T15:11:37.927Z,4.39799331103679
2023-05-02T15:17:58.653Z,2.8461538461538463
2023-05-02T15:24:19.515Z,2.311036789297659
2023-05-02T15:36:18.988Z,1.9698996655518395
2023-05-02T15:42:39.811Z,2.3779264214046822
2023-05-02T15:48:59.719Z,2.0836120401337794
2023-05-02T15:55:19.763Z,2.130434782608696
2023-05-02T16:01:40.910Z,3.511705685618729
2023-05-02T16:14:11.514Z,3.5551839464882944
2023-05-02T16:25:59.754Z,6.1806020066889635
2023-05-02T16:32:30.855Z,4.448160535117057
2023-05-02T16:39:51.082Z,3.6923076923076925
2023-05-02T16:46:13.176Z,5.662207357859532
2023-05-02T16:52:34.451Z,2.2040133779264215
2023-05-02T16:58:55.683Z,3.5183946488294313
2023-05-02T17:06:36.199Z,5.60200668896321
2023-05-02T17:13:01.089Z,4.956521739130435
2023-05-02T17:23:23.994Z,4.080267558528428
2023-05-02T17:29:53.229Z,2.6053511705685617
2023-05-02T17:36:18.743Z,1.7290969899665551
2023-05-02T17:42:42.326Z,1.705685618729097
2023-05-02T17:49:05.829Z,1.7190635451505016
2023-05-02T17:55:51.753Z,1.8862876254180603
2023-05-02T18:02:22.004Z,1.705685618729097
2023-05-02T18:08:44.428Z,2.5852842809364547
2023-05-02T18:15:07.572Z,1.9832775919732442
2023-05-02T18:25:23.360Z,2.3244147157190636
2023-05-02T18:37:08.629Z,1.9866220735785953
2023-05-02T18:47:19.175Z,1.9230769230769231
2023-05-02T18:56:21.129Z,1.8093645484949832
2023-05-02T19:02:42.412Z,2.68561872909699
2023-05-02T19:09:04.676Z,2.939799331103679
2023-05-02T19:15:29.077Z,3.3444816053511706
2023-05-02T19:23:40.685Z,2.5953177257525084
2023-05-02T19:30:02.068Z,2.725752508361204
2023-05-02T19:36:30.769Z,3.1137123745819397
2023-05-02T19:42:55.747Z,4.40133779264214
2023-05-02T19:53:23.310Z,4.989966555183947
2023-05-02T19:59:43.640Z,4.983277591973244
2023-05-02T20:10:27.716Z,4.337792642140468
2023-05-02T20:21:08.723Z,3.351170568561873
2023-05-02T20:27:38.599Z,4.39799331103679
2023-05-02T20:34:00.324Z,3.301003344481605
2023-05-02T20:45:31.711Z,2.68561872909699
2023-05-02T20:51:52.832Z,4.635451505016722
2023-05-02T20:58:14.483Z,3.9698996655518393
2023-05-02T21:04:35.216Z,5.301003344481606
2023-05-02T21:13:38.606Z,3.294314381270903
2023-05-02T21:20:03.430Z,2.9498327759197323
2023-05-02T21:26:25.005Z,2.9096989966555182
2023-05-02T21:36:37.805Z,2.5986622073578594
2023-05-02T21:42:56.240Z,3.0635451505016724
2023-05-02T21:49:18.046Z,3.2842809364548495
2023-05-02T21:55:42.569Z,3.2240802675585285
2023-05-02T22:02:12.407Z,3.8896321070234112
2023-05-02T22:10:50.866Z,4.474916387959866
2023-05-02T22:17:14.500Z,5.374581939799331
2023-05-02T22:23:39.270Z,5.474916387959866
2023-05-02T22:30:01.606Z,5.632107023411371
2023-05-02T22:36:22.827Z,5.735785953177258
2023-05-02T22:42:43.938Z,5.250836120401337
2023-05-02T22:49:03.805Z,5.39799331103679
2023-05-02T22:55:24.985Z,6.3478260869565215
2023-05-02T23:01:45.393Z,6.173913043478261
2023-05-02T23:08:05.020Z,6.080267558528428
2023-05-02T23:24:29.779Z,4.745819397993311
2023-05-02T23:30:49.108Z,4.545150501672241
2023-05-02T23:37:09.478Z,5.297658862876254
2023-05-02T23:43:29.573Z,3.6354515050167224
2023-05-02T23:55:59.375Z,4.374581939799331
